VAAUVAID

Guest
Details From VAAU - AURANGABAD
To VAID - DEVI AHILYABAI HOLKAR
Flight Number -
Tags generated
Created
Modified
Stats Distance 174 nm / 322 km
Max Altitude 7,500 ft / 2,286 m
Waypoints 4
Social Downloads 0
Likes 0
Share VATSIM

Download

Looking for another format? Having issues loading an existing format? Contact us
Advertisement - Login to hide

Notes

Basic altitude profile: - Ascent Rate: 2500ft/min - Ascent Speed: 250kts - Cruise Altitude: 35000ft - Cruise Speed: 420kts - Descent Rate: 1500ft/min - Descent Speed: 250kts Options: - Use NATs: yes - Use PACOTS: yes - Use low airways: yes - Use high airways: yes

Route

VAAU AAU W75 IID VAID

ID Type Via Altitude Latitude Longitude Leg Dist Tot Dist Heading (true) Name
O VAAU APT - 0 ft / 0 m 19.86273˚ 75.39811˚ - 0 nm - AURANGABAD
AAU VOR - 0 ft / 0 m 19.86472˚ 75.39405˚ 0 nm 0 nm 298° / 297° AURANGABAD VOR-DME
IID VOR W75 (AWY-LO) 7,500 ft / 2,286 m 22.72280˚ 75.80675˚ 173 nm 173 nm 8° / 8° INDORE VOR-DME
O VAID APT - 0 ft / 0 m 22.72178˚ 75.80109˚ 0 nm 173 nm 259° / 259° DEVI AHILYABAI HOLKAR

Altitude Profile

Advertisement - Login to hide

Weather


0- 5 10 15 20 25 30 35+ Temperature / ° C

Clouds and Precipitation
Forecast for 2017-12-14 12:00 UTC. Updated an hour ago

Ground ~20,000 ft ~40,000 ft Winds

VAAU

Details ICAO VAAU (IXU)
Name AURANGABAD
Region India
Timezone Asia/Kolkata (UTC+5.5)
Stats Elevation 1,911 ft / 582 m (AMSL)
Location 19.862727° 75.398112°
Runways 1
Magnetic Variation 0.146° W

METAR

VAAU 140900Z 23006KT 5000 HZ FEW020 29/19 Q1016 NOSIG

Decode

TAF

Not found

Departure Runways

ID Width Length Bearing (true) Bearing (mag) Surface Threshold Offset Overrun Length
09 148 ft / 45 m 7,703 ft / 2,348 m 87.94° 88.09° Asphalt 0 ft / 0 m 190 ft / 58 m
27 148 ft / 45 m 7,703 ft / 2,348 m 267.94° 268.09° Asphalt 0 ft / 0 m 200 ft / 61 m

VAID

Details ICAO VAID (IDR)
Name DEVI AHILYABAI HOLKAR
Region India
Timezone Asia/Kolkata (UTC+5.5)
Stats Elevation 1,850 ft / 564 m (AMSL)
Location 22.721785° 75.801086°
Runways 1
Magnetic Variation 0.283° E

METAR

VAID 140900Z 07003KT 4000 HZ FEW025 26/16 Q1016 NOSIG

Decode

TAF

Not found

Destination Runways

ID Width Length Bearing (true) Bearing (mag) Surface Threshold Offset Overrun Length
07 148 ft / 45 m 7,471 ft / 2,277 m 64.96° 64.68° Dirt 0 ft / 0 m 180 ft / 55 m
25 148 ft / 45 m 7,471 ft / 2,277 m 244.97° 244.69° Dirt 0 ft / 0 m 213 ft / 65 m

Approach Navaids

Runway Type Ident Frequency Range Bearing (true) Bearing (mag) Slope Elevation
25 Localiser IIDR 110.90 MHz 18 nm / 33 km 244.27° 243.98° - 1,850 ft / 564 m (AMSL)
25 Glidescope IIDR 110.90 MHz 10 nm / 19 km 244.97° 244.68° 3.00° 1,850 ft / 564 m (AMSL)
25 DME IIDR 110.90 MHz 18 nm / 33 km - - - 1,850 ft / 564 m (AMSL)